< Cyclone 200615 2006 Season Cyclone 200617 >
Cyclone 200616 (FLOYD)
General InformationTrack Information on Google MapsDetailed Wind InformationList of All Images || ResourceGoogle EarthGE AnimationAtom FeedGeoJSON
Detalied Best Track (Time Zone = UTC)
Year Month Day Hour Lat. Long. Pressure (hPa) Wind (kt) Class Image Chart
2006 3 18 12 -11.4 118.9 1004 20 2 Image --
2006 3 18 18 -11.4 118.7 1004 20 2 Image --
2006 3 19 00 -11.4 118.5 1004 20 2 Image --
2006 3 19 06 -11.4 118.3 1004 20 2 Image --
2006 3 19 12 -11.3 118.0 1002 25 2 Image --
2006 3 19 18 -11.2 117.7 1002 25 2 Image --
2006 3 20 00 -11.2 117.2 1002 25 2 Image --
2006 3 20 06 -11.3 116.8 1000 25 2 Image --
2006 3 20 12 -11.4 116.7 998 25 2 Image --
2006 3 20 18 -11.7 116.7 994 30 2 Image --
2006 3 21 00 -12.1 116.4 990 35 3 Image --
2006 3 21 06 -12.5 115.6 990 35 3 Image --
2006 3 21 12 -12.9 115.3 988 40 3 Image --
2006 3 21 18 -13.1 114.4 984 45 3 Image --
2006 3 22 00 -13.2 113.4 980 50 4 Image --
2006 3 22 06 -13.2 112.5 978 50 4 Image --
2006 3 22 12 -13.3 111.6 970 55 4 Image --
2006 3 22 18 -13.3 110.9 968 60 4 Image --
2006 3 23 00 -13.3 110.2 964 65 5 Image --
2006 3 23 06 -13.4 109.5 956 70 5 Image --
2006 3 23 12 -13.9 109.2 936 90 5 Image --
2006 3 23 18 -14.5 108.6 924 100 5 Image --
2006 3 24 00 -15.0 108.2 916 105 5 Image --
2006 3 24 06 -15.6 108.4 916 105 5 Image --
2006 3 24 12 -16.4 108.6 924 100 5 Image --
2006 3 24 18 -17.0 108.9 938 90 5 Image --
2006 3 25 00 -17.5 109.4 938 90 5 Image --
2006 3 25 06 -18.0 110.2 940 90 5 Image --
2006 3 25 12 -18.6 111.1 952 80 5 Image --
2006 3 25 18 -18.8 111.6 964 70 5 Image --
2006 3 26 00 -19.0 112.1 972 60 4 Image --
2006 3 26 06 -19.2 112.3 982 50 4 Image --
2006 3 26 12 -19.7 112.2 992 35 3 Image --
2006 3 26 18 -20.0 112.1 996 30 2 Image --
2006 3 27 00 -20.6 111.8 998 25 2 Image --
2006 3 27 06 -21.4 111.4 1000 25 2 Image --
< Cyclone 200615 2006 Season Cyclone 200617 >

Help